sensor_id;sensor_type;location;lat;lon;timestamp;temperature;humidity
7572;DHT22;3827;49.928;8.548;2022-09-03T00:01:13;16.30;99.90
7572;DHT22;3827;49.928;8.548;2022-09-03T00:03:46;16.30;99.90
7572;DHT22;3827;49.928;8.548;2022-09-03T00:06:16;16.20;99.90
7572;DHT22;3827;49.928;8.548;2022-09-03T00:08:47;16.20;99.90
7572;DHT22;3827;49.928;8.548;2022-09-03T00:11:18;16.20;99.90
7572;DHT22;3827;49.928;8.548;2022-09-03T00:13:50;16.50;99.90
7572;DHT22;3827;49.928;8.548;2022-09-03T00:16:21;16.20;99.90
7572;DHT22;3827;49.928;8.548;2022-09-03T00:18:53;16.10;99.90
7572;DHT22;3827;49.928;8.548;2022-09-03T00:21:31;16.00;99.90
7572;DHT22;3827;49.928;8.548;2022-09-03T00:24:00;16.00;99.90
7572;DHT22;3827;49.928;8.548;2022-09-03T00:26:32;15.90;99.90
7572;DHT22;3827;49.928;8.548;2022-09-03T00:29:03;15.90;99.90
7572;DHT22;3827;49.928;8.548;2022-09-03T00:31:35;15.90;99.90
7572;DHT22;3827;49.928;8.548;2022-09-03T00:34:06;15.90;99.90
7572;DHT22;3827;49.928;8.548;2022-09-03T00:36:37;15.80;99.90
7572;DHT22;3827;49.928;8.548;2022-09-03T00:39:09;15.60;99.90
7572;DHT22;3827;49.928;8.548;2022-09-03T00:41:39;15.60;99.90
7572;DHT22;3827;49.928;8.548;2022-09-03T00:44:32;15.50;99.90
7572;DHT22;3827;49.928;8.548;2022-09-03T00:47:10;15.40;99.90
7572;DHT22;3827;49.928;8.548;2022-09-03T00:49:46;15.50;99.90
7572;DHT22;3827;49.928;8.548;2022-09-03T00:52:24;15.60;99.90
7572;DHT22;3827;49.928;8.548;2022-09-03T00:54:59;15.70;99.90
7572;DHT22;3827;49.928;8.548;2022-09-03T00:57:36;15.70;99.90
7572;DHT22;3827;49.928;8.548;2022-09-03T01:00:07;15.80;99.90
7572;DHT22;3827;49.928;8.548;2022-09-03T01:02:55;16.00;99.90
7572;DHT22;3827;49.928;8.548;2022-09-03T01:05:32;15.90;99.90
7572;DHT22;3827;49.928;8.548;2022-09-03T01:08:17;15.90;99.90
7572;DHT22;3827;49.928;8.548;2022-09-03T01:10:51;15.80;99.90
7572;DHT22;3827;49.928;8.548;2022-09-03T01:13:22;15.80;99.90
7572;DHT22;3827;49.928;8.548;2022-09-03T01:16:01;15.50;99.90
7572;DHT22;3827;49.928;8.548;2022-09-03T01:18:37;15.40;99.90
7572;DHT22;3827;49.928;8.548;2022-09-03T01:21:18;15.40;99.90
7572;DHT22;3827;49.928;8.548;2022-09-03T01:24:07;15.40;99.90
7572;DHT22;3827;49.928;8.548;2022-09-03T01:26:54;15.40;99.90
7572;DHT22;3827;49.928;8.548;2022-09-03T01:29:35;15.30;99.90
7572;DHT22;3827;49.928;8.548;2022-09-03T01:32:10;15.30;99.90
7572;DHT22;3827;49.928;8.548;2022-09-03T01:34:48;15.40;99.90
7572;DHT22;3827;49.928;8.548;2022-09-03T01:37:25;15.30;99.90
7572;DHT22;3827;49.928;8.548;2022-09-03T01:40:02;15.30;99.90
7572;DHT22;3827;49.928;8.548;2022-09-03T01:42:38;15.30;99.90
7572;DHT22;3827;49.928;8.548;2022-09-03T01:45:35;15.40;99.90
7572;DHT22;3827;49.928;8.548;2022-09-03T01:48:13;15.40;99.90
7572;DHT22;3827;49.928;8.548;2022-09-03T01:50:49;15.50;99.90
7572;DHT22;3827;49.928;8.548;2022-09-03T01:53:31;15.60;99.90
7572;DHT22;3827;49.928;8.548;2022-09-03T01:56:10;15.70;99.90
7572;DHT22;3827;49.928;8.548;2022-09-03T01:58:44;15.80;99.90
7572;DHT22;3827;49.928;8.548;2022-09-03T02:01:16;15.90;99.90
7572;DHT22;3827;49.928;8.548;2022-09-03T02:03:46;15.90;99.90
7572;DHT22;3827;49.928;8.548;2022-09-03T02:06:14;15.90;99.90
7572;DHT22;3827;49.928;8.548;2022-09-03T02:08:43;15.90;99.90
7572;DHT22;3827;49.928;8.548;2022-09-03T02:11:10;15.90;99.90
7572;DHT22;3827;49.928;8.548;2022-09-03T02:13:38;15.90;99.90
7572;DHT22;3827;49.928;8.548;2022-09-03T02:16:10;15.90;99.90
7572;DHT22;3827;49.928;8.548;2022-09-03T02:18:42;15.90;99.90
7572;DHT22;3827;49.928;8.548;2022-09-03T02:21:11;16.00;99.90
7572;DHT22;3827;49.928;8.548;2022-09-03T02:23:39;16.00;99.90
7572;DHT22;3827;49.928;8.548;2022-09-03T02:26:07;16.10;99.90
7572;DHT22;3827;49.928;8.548;2022-09-03T02:28:34;16.10;99.90
7572;DHT22;3827;49.928;8.548;2022-09-03T02:31:02;16.20;99.90
7572;DHT22;3827;49.928;8.548;2022-09-03T02:33:30;16.20;99.90
7572;DHT22;3827;49.928;8.548;2022-09-03T02:35:59;16.30;99.90
7572;DHT22;3827;49.928;8.548;2022-09-03T02:38:26;16.30;99.90
7572;DHT22;3827;49.928;8.548;2022-09-03T02:40:53;16.30;99.90
7572;DHT22;3827;49.928;8.548;2022-09-03T02:43:24;16.30;99.90
7572;DHT22;3827;49.928;8.548;2022-09-03T02:45:56;16.30;99.90
7572;DHT22;3827;49.928;8.548;2022-09-03T02:48:25;16.30;99.90
7572;DHT22;3827;49.928;8.548;2022-09-03T02:50:52;16.30;99.90
7572;DHT22;3827;49.928;8.548;2022-09-03T02:53:20;16.30;99.90
7572;DHT22;3827;49.928;8.548;2022-09-03T02:55:47;16.40;99.90
7572;DHT22;3827;49.928;8.548;2022-09-03T02:58:14;16.40;99.90
7572;DHT22;3827;49.928;8.548;2022-09-03T03:00:41;16.40;99.90
7572;DHT22;3827;49.928;8.548;2022-09-03T03:03:08;16.40;99.90
7572;DHT22;3827;49.928;8.548;2022-09-03T03:05:42;16.40;99.90
7572;DHT22;3827;49.928;8.548;2022-09-03T03:08:09;16.40;99.90
7572;DHT22;3827;49.928;8.548;2022-09-03T03:10:38;16.40;99.90
7572;DHT22;3827;49.928;8.548;2022-09-03T03:13:05;16.40;99.90
7572;DHT22;3827;49.928;8.548;2022-09-03T03:15:31;16.40;99.90
7572;DHT22;3827;49.928;8.548;2022-09-03T03:17:58;16.40;99.90
7572;DHT22;3827;49.928;8.548;2022-09-03T03:20:25;16.40;99.90
7572;DHT22;3827;49.928;8.548;2022-09-03T03:22:52;16.50;99.90
7572;DHT22;3827;49.928;8.548;2022-09-03T03:25:19;16.50;99.90
7572;DHT22;3827;49.928;8.548;2022-09-03T03:27:47;16.50;99.90
7572;DHT22;3827;49.928;8.548;2022-09-03T03:30:14;16.50;99.90
7572;DHT22;3827;49.928;8.548;2022-09-03T03:32:41;16.50;99.90
7572;DHT22;3827;49.928;8.548;2022-09-03T03:35:08;16.60;99.90
7572;DHT22;3827;49.928;8.548;2022-09-03T03:37:36;16.60;99.90
7572;DHT22;3827;49.928;8.548;2022-09-03T03:40:03;16.60;99.90
7572;DHT22;3827;49.928;8.548;2022-09-03T03:42:32;16.60;99.90
7572;DHT22;3827;49.928;8.548;2022-09-03T03:45:00;16.60;99.90
7572;DHT22;3827;49.928;8.548;2022-09-03T03:47:28;16.60;99.90
7572;DHT22;3827;49.928;8.548;2022-09-03T03:49:55;16.60;99.90
7572;DHT22;3827;49.928;8.548;2022-09-03T03:52:22;16.60;99.90
7572;DHT22;3827;49.928;8.548;2022-09-03T03:54:49;16.60;99.90
7572;DHT22;3827;49.928;8.548;2022-09-03T03:57:16;16.60;99.90
7572;DHT22;3827;49.928;8.548;2022-09-03T03:59:44;16.60;99.90
7572;DHT22;3827;49.928;8.548;2022-09-03T04:02:12;16.60;99.90
7572;DHT22;3827;49.928;8.548;2022-09-03T04:04:39;16.60;99.90
7572;DHT22;3827;49.928;8.548;2022-09-03T04:07:06;16.60;99.90
7572;DHT22;3827;49.928;8.548;2022-09-03T04:09:33;16.60;99.90
7572;DHT22;3827;49.928;8.548;2022-09-03T04:12:00;16.50;99.90
7572;DHT22;3827;49.928;8.548;2022-09-03T04:14:29;16.50;99.90
7572;DHT22;3827;49.928;8.548;2022-09-03T04:16:56;16.50;99.90
7572;DHT22;3827;49.928;8.548;2022-09-03T04:19:25;16.50;99.90
7572;DHT22;3827;49.928;8.548;2022-09-03T04:21:54;16.50;99.90
7572;DHT22;3827;49.928;8.548;2022-09-03T04:24:20;16.50;99.90
7572;DHT22;3827;49.928;8.548;2022-09-03T04:26:48;16.60;99.90
7572;DHT22;3827;49.928;8.548;2022-09-03T04:29:15;16.70;99.90
7572;DHT22;3827;49.928;8.548;2022-09-03T04:31:43;16.70;99.90
7572;DHT22;3827;49.928;8.548;2022-09-03T04:34:31;16.80;99.90
7572;DHT22;3827;49.928;8.548;2022-09-03T04:36:58;16.80;99.90
7572;DHT22;3827;49.928;8.548;2022-09-03T04:39:25;16.80;99.90
7572;DHT22;3827;49.928;8.548;2022-09-03T04:41:52;16.90;99.90
7572;DHT22;3827;49.928;8.548;2022-09-03T04:44:19;16.90;99.90
7572;DHT22;3827;49.928;8.548;2022-09-03T04:46:46;16.90;99.90
7572;DHT22;3827;49.928;8.548;2022-09-03T04:49:13;16.90;99.90
7572;DHT22;3827;49.928;8.548;2022-09-03T04:51:41;16.90;99.90
7572;DHT22;3827;49.928;8.548;2022-09-03T04:54:09;16.90;99.90
7572;DHT22;3827;49.928;8.548;2022-09-03T04:56:37;16.90;99.90
7572;DHT22;3827;49.928;8.548;2022-09-03T04:59:06;16.90;99.90
7572;DHT22;3827;49.928;8.548;2022-09-03T05:01:35;16.80;99.90
7572;DHT22;3827;49.928;8.548;2022-09-03T05:04:03;16.80;99.90
7572;DHT22;3827;49.928;8.548;2022-09-03T05:06:31;16.90;99.90
7572;DHT22;3827;49.928;8.548;2022-09-03T05:08:59;16.90;99.90
7572;DHT22;3827;49.928;8.548;2022-09-03T05:11:27;16.90;99.90
7572;DHT22;3827;49.928;8.548;2022-09-03T05:13:56;17.00;99.90
7572;DHT22;3827;49.928;8.548;2022-09-03T05:16:24;17.00;99.90
7572;DHT22;3827;49.928;8.548;2022-09-03T05:18:53;17.00;99.90
7572;DHT22;3827;49.928;8.548;2022-09-03T05:21:21;17.10;99.90
7572;DHT22;3827;49.928;8.548;2022-09-03T05:23:49;17.10;99.90
7572;DHT22;3827;49.928;8.548;2022-09-03T05:26:19;17.00;99.90
7572;DHT22;3827;49.928;8.548;2022-09-03T05:28:47;17.00;99.90
7572;DHT22;3827;49.928;8.548;2022-09-03T05:31:15;17.00;99.90
7572;DHT22;3827;49.928;8.548;2022-09-03T05:33:44;17.00;99.90
7572;DHT22;3827;49.928;8.548;2022-09-03T05:36:13;17.00;99.90
7572;DHT22;3827;49.928;8.548;2022-09-03T05:38:40;17.00;99.90
7572;DHT22;3827;49.928;8.548;2022-09-03T05:41:09;17.00;99.90
7572;DHT22;3827;49.928;8.548;2022-09-03T05:43:38;17.00;99.90
7572;DHT22;3827;49.928;8.548;2022-09-03T05:46:07;16.90;99.90
7572;DHT22;3827;49.928;8.548;2022-09-03T05:48:37;16.90;99.90
7572;DHT22;3827;49.928;8.548;2022-09-03T05:51:06;16.90;99.90
7572;DHT22;3827;49.928;8.548;2022-09-03T05:53:34;16.90;99.90
7572;DHT22;3827;49.928;8.548;2022-09-03T05:56:03;16.90;99.90
7572;DHT22;3827;49.928;8.548;2022-09-03T05:58:31;16.90;99.90
7572;DHT22;3827;49.928;8.548;2022-09-03T06:00:59;16.90;99.90
7572;DHT22;3827;49.928;8.548;2022-09-03T06:03:26;16.90;99.90
7572;DHT22;3827;49.928;8.548;2022-09-03T06:05:53;16.90;99.90
7572;DHT22;3827;49.928;8.548;2022-09-03T06:08:20;17.00;99.90
7572;DHT22;3827;49.928;8.548;2022-09-03T06:10:47;17.00;99.90
7572;DHT22;3827;49.928;8.548;2022-09-03T06:13:14;17.10;99.90
7572;DHT22;3827;49.928;8.548;2022-09-03T06:15:41;17.10;99.90
7572;DHT22;3827;49.928;8.548;2022-09-03T06:18:09;17.20;99.90
7572;DHT22;3827;49.928;8.548;2022-09-03T06:20:36;17.20;99.90
7572;DHT22;3827;49.928;8.548;2022-09-03T06:23:03;17.20;99.90
7572;DHT22;3827;49.928;8.548;2022-09-03T06:25:30;17.10;99.90
7572;DHT22;3827;49.928;8.548;2022-09-03T06:27:57;17.10;99.90
7572;DHT22;3827;49.928;8.548;2022-09-03T06:30:24;17.00;99.90
7572;DHT22;3827;49.928;8.548;2022-09-03T06:32:51;16.90;99.90
7572;DHT22;3827;49.928;8.548;2022-09-03T06:35:20;16.90;99.90
7572;DHT22;3827;49.928;8.548;2022-09-03T06:37:46;16.80;99.90
7572;DHT22;3827;49.928;8.548;2022-09-03T06:40:13;16.70;99.90
7572;DHT22;3827;49.928;8.548;2022-09-03T06:42:55;16.60;99.90
7572;DHT22;3827;49.928;8.548;2022-09-03T06:45:23;16.60;99.90
7572;DHT22;3827;49.928;8.548;2022-09-03T06:47:50;16.70;99.90
7572;DHT22;3827;49.928;8.548;2022-09-03T06:50:17;16.70;99.90
7572;DHT22;3827;49.928;8.548;2022-09-03T06:52:50;16.70;99.90
7572;DHT22;3827;49.928;8.548;2022-09-03T06:55:17;16.80;99.90
7572;DHT22;3827;49.928;8.548;2022-09-03T06:57:44;16.80;99.90
7572;DHT22;3827;49.928;8.548;2022-09-03T07:00:12;16.80;99.90
7572;DHT22;3827;49.928;8.548;2022-09-03T07:02:39;16.90;99.90
7572;DHT22;3827;49.928;8.548;2022-09-03T07:05:07;16.80;99.90
7572;DHT22;3827;49.928;8.548;2022-09-03T07:07:34;16.90;99.90
7572;DHT22;3827;49.928;8.548;2022-09-03T07:10:03;16.90;99.90
7572;DHT22;3827;49.928;8.548;2022-09-03T07:12:31;17.00;99.90
7572;DHT22;3827;49.928;8.548;2022-09-03T07:15:02;17.00;99.90
7572;DHT22;3827;49.928;8.548;2022-09-03T07:17:29;17.00;99.90
7572;DHT22;3827;49.928;8.548;2022-09-03T07:19:56;16.90;99.90
7572;DHT22;3827;49.928;8.548;2022-09-03T07:22:23;16.90;99.90
7572;DHT22;3827;49.928;8.548;2022-09-03T07:24:50;16.80;99.90
7572;DHT22;3827;49.928;8.548;2022-09-03T07:27:18;16.70;99.90
7572;DHT22;3827;49.928;8.548;2022-09-03T07:29:45;16.50;99.90
7572;DHT22;3827;49.928;8.548;2022-09-03T07:32:12;16.40;99.90
7572;DHT22;3827;49.928;8.548;2022-09-03T07:34:39;16.30;99.90
7572;DHT22;3827;49.928;8.548;2022-09-03T07:37:05;16.30;99.90
7572;DHT22;3827;49.928;8.548;2022-09-03T07:39:34;16.20;99.90
7572;DHT22;3827;49.928;8.548;2022-09-03T07:42:01;16.10;99.90
7572;DHT22;3827;49.928;8.548;2022-09-03T07:44:29;16.00;99.90
7572;DHT22;3827;49.928;8.548;2022-09-03T07:46:56;15.90;99.90
7572;DHT22;3827;49.928;8.548;2022-09-03T07:49:23;15.80;99.90
7572;DHT22;3827;49.928;8.548;2022-09-03T07:51:50;15.60;99.90
7572;DHT22;3827;49.928;8.548;2022-09-03T07:54:18;15.50;99.90
7572;DHT22;3827;49.928;8.548;2022-09-03T07:56:46;15.40;99.90
7572;DHT22;3827;49.928;8.548;2022-09-03T07:59:13;15.30;99.90
7572;DHT22;3827;49.928;8.548;2022-09-03T08:01:41;15.20;99.90
7572;DHT22;3827;49.928;8.548;2022-09-03T08:04:09;15.10;99.90
7572;DHT22;3827;49.928;8.548;2022-09-03T08:06:37;16.10;99.90
7572;DHT22;3827;49.928;8.548;2022-09-03T08:09:06;15.10;99.90
7572;DHT22;3827;49.928;8.548;2022-09-03T08:11:36;15.10;99.90
7572;DHT22;3827;49.928;8.548;2022-09-03T08:14:05;15.20;99.90
7572;DHT22;3827;49.928;8.548;2022-09-03T08:16:34;15.20;99.90
7572;DHT22;3827;49.928;8.548;2022-09-03T08:19:04;15.30;99.90
7572;DHT22;3827;49.928;8.548;2022-09-03T08:21:32;15.50;99.90
7572;DHT22;3827;49.928;8.548;2022-09-03T08:23:59;15.70;99.90
7572;DHT22;3827;49.928;8.548;2022-09-03T08:26:29;15.80;99.90
7572;DHT22;3827;49.928;8.548;2022-09-03T08:28:57;15.80;99.90
7572;DHT22;3827;49.928;8.548;2022-09-03T08:31:24;16.00;99.90
7572;DHT22;3827;49.928;8.548;2022-09-03T08:33:54;16.10;99.90
7572;DHT22;3827;49.928;8.548;2022-09-03T08:36:24;16.10;99.90
7572;DHT22;3827;49.928;8.548;2022-09-03T08:38:52;16.30;99.90
7572;DHT22;3827;49.928;8.548;2022-09-03T08:41:32;16.40;99.90
7572;DHT22;3827;49.928;8.548;2022-09-03T08:44:11;16.40;99.90
7572;DHT22;3827;49.928;8.548;2022-09-03T08:46:49;16.50;99.90
7572;DHT22;3827;49.928;8.548;2022-09-03T08:49:22;16.70;1.00
7572;DHT22;3827;49.928;8.548;2022-09-03T08:51:52;17.10;1.00
7572;DHT22;3827;49.928;8.548;2022-09-03T08:54:24;17.50;99.90
7572;DHT22;3827;49.928;8.548;2022-09-03T08:56:53;17.70;99.90
7572;DHT22;3827;49.928;8.548;2022-09-03T08:59:21;18.10;99.90
7572;DHT22;3827;49.928;8.548;2022-09-03T09:01:54;18.40;99.90
7572;DHT22;3827;49.928;8.548;2022-09-03T09:04:31;18.50;99.90
7572;DHT22;3827;49.928;8.548;2022-09-03T09:07:09;18.50;99.90
7572;DHT22;3827;49.928;8.548;2022-09-03T09:09:43;18.60;99.90
7572;DHT22;3827;49.928;8.548;2022-09-03T09:12:20;18.60;99.90
7572;DHT22;3827;49.928;8.548;2022-09-03T09:14:55;18.60;99.90
7572;DHT22;3827;49.928;8.548;2022-09-03T09:17:36;18.50;99.90
7572;DHT22;3827;49.928;8.548;2022-09-03T09:20:11;18.20;99.90
7572;DHT22;3827;49.928;8.548;2022-09-03T09:22:45;18.10;99.90
7572;DHT22;3827;49.928;8.548;2022-09-03T09:25:15;18.30;99.90
7572;DHT22;3827;49.928;8.548;2022-09-03T09:27:47;18.40;99.90
7572;DHT22;3827;49.928;8.548;2022-09-03T09:30:17;18.50;1.00
7572;DHT22;3827;49.928;8.548;2022-09-03T09:32:45;18.70;99.90
7572;DHT22;3827;49.928;8.548;2022-09-03T09:35:17;19.20;99.90
7572;DHT22;3827;49.928;8.548;2022-09-03T09:37:50;19.50;99.90
7572;DHT22;3827;49.928;8.548;2022-09-03T09:40:27;19.50;99.90
7572;DHT22;3827;49.928;8.548;2022-09-03T09:43:08;19.70;99.90
7572;DHT22;3827;49.928;8.548;2022-09-03T09:45:37;19.90;99.90
7572;DHT22;3827;49.928;8.548;2022-09-03T09:48:09;19.80;99.90
7572;DHT22;3827;49.928;8.548;2022-09-03T09:50:36;19.40;99.90
7572;DHT22;3827;49.928;8.548;2022-09-03T09:53:08;19.30;99.90
7572;DHT22;3827;49.928;8.548;2022-09-03T09:55:51;19.40;99.90
7572;DHT22;3827;49.928;8.548;2022-09-03T09:58:20;19.10;99.90
7572;DHT22;3827;49.928;8.548;2022-09-03T10:01:00;19.30;99.90
7572;DHT22;3827;49.928;8.548;2022-09-03T10:03:32;19.90;99.90
7572;DHT22;3827;49.928;8.548;2022-09-03T10:06:05;20.50;99.90
7572;DHT22;3827;49.928;8.548;2022-09-03T10:08:52;20.60;99.90
7572;DHT22;3827;49.928;8.548;2022-09-03T10:11:20;21.00;99.90
7572;DHT22;3827;49.928;8.548;2022-09-03T10:13:51;21.00;99.90
7572;DHT22;3827;49.928;8.548;2022-09-03T10:16:22;21.10;99.90
7572;DHT22;3827;49.928;8.548;2022-09-03T10:18:57;21.50;99.90
7572;DHT22;3827;49.928;8.548;2022-09-03T10:21:31;21.90;99.90
7572;DHT22;3827;49.928;8.548;2022-09-03T10:24:14;22.40;99.90
7572;DHT22;3827;49.928;8.548;2022-09-03T10:26:43;22.70;99.90
7572;DHT22;3827;49.928;8.548;2022-09-03T10:29:12;23.00;99.90
7572;DHT22;3827;49.928;8.548;2022-09-03T10:31:51;22.80;99.90
7572;DHT22;3827;49.928;8.548;2022-09-03T10:34:26;22.30;99.90
7572;DHT22;3827;49.928;8.548;2022-09-03T10:37:05;22.70;99.90
7572;DHT22;3827;49.928;8.548;2022-09-03T10:39:50;23.20;99.90
7572;DHT22;3827;49.928;8.548;2022-09-03T10:42:32;23.40;99.90
7572;DHT22;3827;49.928;8.548;2022-09-03T10:45:07;23.40;99.90
7572;DHT22;3827;49.928;8.548;2022-09-03T10:47:51;23.50;99.90
7572;DHT22;3827;49.928;8.548;2022-09-03T10:50:26;23.60;99.90
7572;DHT22;3827;49.928;8.548;2022-09-03T10:53:06;23.90;99.90
7572;DHT22;3827;49.928;8.548;2022-09-03T10:55:45;23.90;99.90
7572;DHT22;3827;49.928;8.548;2022-09-03T10:58:32;23.90;99.90
7572;DHT22;3827;49.928;8.548;2022-09-03T11:01:09;24.10;99.90
7572;DHT22;3827;49.928;8.548;2022-09-03T11:03:47;24.40;99.90
7572;DHT22;3827;49.928;8.548;2022-09-03T11:06:20;24.40;99.90
7572;DHT22;3827;49.928;8.548;2022-09-03T11:08:54;24.40;99.90
7572;DHT22;3827;49.928;8.548;2022-09-03T11:11:28;24.60;99.90
7572;DHT22;3827;49.928;8.548;2022-09-03T11:14:01;25.20;99.90
7572;DHT22;3827;49.928;8.548;2022-09-03T11:16:35;25.90;99.90
7572;DHT22;3827;49.928;8.548;2022-09-03T11:19:06;25.80;99.90
7572;DHT22;3827;49.928;8.548;2022-09-03T11:21:38;26.10;99.90
7572;DHT22;3827;49.928;8.548;2022-09-03T11:24:11;25.70;99.90
7572;DHT22;3827;49.928;8.548;2022-09-03T11:26:43;24.70;99.90
7572;DHT22;3827;49.928;8.548;2022-09-03T11:29:14;24.70;99.90
7572;DHT22;3827;49.928;8.548;2022-09-03T11:31:53;24.70;99.90
7572;DHT22;3827;49.928;8.548;2022-09-03T11:34:27;25.00;99.90
7572;DHT22;3827;49.928;8.548;2022-09-03T11:37:04;25.40;99.90
7572;DHT22;3827;49.928;8.548;2022-09-03T11:39:34;25.60;99.90
7572;DHT22;3827;49.928;8.548;2022-09-03T11:42:20;26.00;99.90
7572;DHT22;3827;49.928;8.548;2022-09-03T11:44:50;26.20;99.90
7572;DHT22;3827;49.928;8.548;2022-09-03T11:47:21;26.30;99.90
7572;DHT22;3827;49.928;8.548;2022-09-03T11:49:51;26.40;99.90
7572;DHT22;3827;49.928;8.548;2022-09-03T11:52:28;26.40;99.90
7572;DHT22;3827;49.928;8.548;2022-09-03T11:54:56;26.60;99.90
7572;DHT22;3827;49.928;8.548;2022-09-03T11:57:27;26.90;99.90
7572;DHT22;3827;49.928;8.548;2022-09-03T12:00:07;26.30;99.90
7572;DHT22;3827;49.928;8.548;2022-09-03T12:02:36;26.90;99.90
7572;DHT22;3827;49.928;8.548;2022-09-03T12:05:32;26.80;99.90
7572;DHT22;3827;49.928;8.548;2022-09-03T12:08:37;27.10;99.90
7572;DHT22;3827;49.928;8.548;2022-09-03T12:11:20;26.60;99.90
7572;DHT22;3827;49.928;8.548;2022-09-03T12:13:55;26.20;99.90
7572;DHT22;3827;49.928;8.548;2022-09-03T12:16:37;26.00;99.90
7572;DHT22;3827;49.928;8.548;2022-09-03T12:19:10;26.30;99.90
7572;DHT22;3827;49.928;8.548;2022-09-03T12:21:41;26.90;99.90
7572;DHT22;3827;49.928;8.548;2022-09-03T12:24:10;27.30;99.90
7572;DHT22;3827;49.928;8.548;2022-09-03T12:26:39;27.60;99.90
7572;DHT22;3827;49.928;8.548;2022-09-03T12:29:19;28.00;99.90
7572;DHT22;3827;49.928;8.548;2022-09-03T12:31:48;27.30;99.90
7572;DHT22;3827;49.928;8.548;2022-09-03T12:34:17;26.90;99.90
7572;DHT22;3827;49.928;8.548;2022-09-03T12:36:47;26.50;99.90
7572;DHT22;3827;49.928;8.548;2022-09-03T12:39:15;26.00;99.90
7572;DHT22;3827;49.928;8.548;2022-09-03T12:41:55;25.50;99.90
7572;DHT22;3827;49.928;8.548;2022-09-03T12:44:26;25.30;99.90
7572;DHT22;3827;49.928;8.548;2022-09-03T12:47:00;25.20;99.90
7572;DHT22;3827;49.928;8.548;2022-09-03T12:49:33;25.20;99.90
7572;DHT22;3827;49.928;8.548;2022-09-03T12:52:04;25.10;99.90
7572;DHT22;3827;49.928;8.548;2022-09-03T12:54:36;25.20;99.90
7572;DHT22;3827;49.928;8.548;2022-09-03T12:57:08;25.30;99.90
7572;DHT22;3827;49.928;8.548;2022-09-03T12:59:37;25.70;99.90
7572;DHT22;3827;49.928;8.548;2022-09-03T13:02:13;26.40;99.90
7572;DHT22;3827;49.928;8.548;2022-09-03T13:04:44;26.80;99.90
7572;DHT22;3827;49.928;8.548;2022-09-03T13:07:13;27.50;99.90
7572;DHT22;3827;49.928;8.548;2022-09-03T13:09:46;28.10;99.90
7572;DHT22;3827;49.928;8.548;2022-09-03T13:12:21;28.80;99.90
7572;DHT22;3827;49.928;8.548;2022-09-03T13:14:50;28.90;99.90
7572;DHT22;3827;49.928;8.548;2022-09-03T13:17:29;29.30;99.90
7572;DHT22;3827;49.928;8.548;2022-09-03T13:20:18;28.90;99.90
7572;DHT22;3827;49.928;8.548;2022-09-03T13:22:59;28.60;99.90
7572;DHT22;3827;49.928;8.548;2022-09-03T13:25:32;27.90;99.90
7572;DHT22;3827;49.928;8.548;2022-09-03T13:28:13;28.00;99.90
7572;DHT22;3827;49.928;8.548;2022-09-03T13:30:53;27.90;99.90
7572;DHT22;3827;49.928;8.548;2022-09-03T13:33:25;27.30;99.90
7572;DHT22;3827;49.928;8.548;2022-09-03T13:36:01;26.90;99.90
7572;DHT22;3827;49.928;8.548;2022-09-03T13:38:32;26.00;99.90
7572;DHT22;3827;49.928;8.548;2022-09-03T13:41:07;25.90;99.90
7572;DHT22;3827;49.928;8.548;2022-09-03T13:43:47;25.70;99.90
7572;DHT22;3827;49.928;8.548;2022-09-03T13:46:24;25.80;99.90
7572;DHT22;3827;49.928;8.548;2022-09-03T13:49:04;25.90;99.90
7572;DHT22;3827;49.928;8.548;2022-09-03T13:51:55;25.80;99.90
7572;DHT22;3827;49.928;8.548;2022-09-03T13:56:58;25.70;99.90
7572;DHT22;3827;49.928;8.548;2022-09-03T13:59:33;25.80;99.90
7572;DHT22;3827;49.928;8.548;2022-09-03T14:02:15;26.00;99.90
7572;DHT22;3827;49.928;8.548;2022-09-03T14:04:54;25.90;99.90
7572;DHT22;3827;49.928;8.548;2022-09-03T14:07:27;25.90;99.90
7572;DHT22;3827;49.928;8.548;2022-09-03T14:10:05;25.90;99.90
7572;DHT22;3827;49.928;8.548;2022-09-03T14:12:43;26.00;99.90
7572;DHT22;3827;49.928;8.548;2022-09-03T14:15:16;25.70;99.90
7572;DHT22;3827;49.928;8.548;2022-09-03T14:17:48;25.50;99.90
7572;DHT22;3827;49.928;8.548;2022-09-03T14:20:22;25.70;99.90
7572;DHT22;3827;49.928;8.548;2022-09-03T14:22:53;26.30;99.90
7572;DHT22;3827;49.928;8.548;2022-09-03T14:25:22;27.20;99.90
7572;DHT22;3827;49.928;8.548;2022-09-03T14:27:51;27.40;99.90
7572;DHT22;3827;49.928;8.548;2022-09-03T14:30:31;27.50;99.90
7572;DHT22;3827;49.928;8.548;2022-09-03T14:33:09;27.10;99.90
7572;DHT22;3827;49.928;8.548;2022-09-03T14:35:52;27.00;99.90
7572;DHT22;3827;49.928;8.548;2022-09-03T14:38:31;26.90;99.90
7572;DHT22;3827;49.928;8.548;2022-09-03T14:41:09;27.60;99.90
7572;DHT22;3827;49.928;8.548;2022-09-03T14:44:32;28.10;99.90
7572;DHT22;3827;49.928;8.548;2022-09-03T14:47:11;28.20;99.90
7572;DHT22;3827;49.928;8.548;2022-09-03T14:50:00;27.80;99.90
7572;DHT22;3827;49.928;8.548;2022-09-03T14:52:52;27.80;99.90
7572;DHT22;3827;49.928;8.548;2022-09-03T14:56:02;27.70;99.90
7572;DHT22;3827;49.928;8.548;2022-09-03T14:58:42;27.80;99.90
7572;DHT22;3827;49.928;8.548;2022-09-03T15:01:18;27.10;99.90
7572;DHT22;3827;49.928;8.548;2022-09-03T15:06:56;25.80;99.90
7572;DHT22;3827;49.928;8.548;2022-09-03T15:09:30;25.20;99.90
7572;DHT22;3827;49.928;8.548;2022-09-03T15:12:02;25.40;99.90
7572;DHT22;3827;49.928;8.548;2022-09-03T15:14:38;25.60;99.90
7572;DHT22;3827;49.928;8.548;2022-09-03T15:17:21;25.50;99.90
7572;DHT22;3827;49.928;8.548;2022-09-03T15:20:15;25.40;99.90
7572;DHT22;3827;49.928;8.548;2022-09-03T15:23:05;25.10;99.90
7572;DHT22;3827;49.928;8.548;2022-09-03T15:25:48;24.80;99.90
7572;DHT22;3827;49.928;8.548;2022-09-03T15:28:24;24.50;99.90
7572;DHT22;3827;49.928;8.548;2022-09-03T15:31:00;24.30;99.90
7572;DHT22;3827;49.928;8.548;2022-09-03T15:33:41;24.30;99.90
7572;DHT22;3827;49.928;8.548;2022-09-03T15:36:14;24.20;99.90
7572;DHT22;3827;49.928;8.548;2022-09-03T15:38:49;24.10;99.90
7572;DHT22;3827;49.928;8.548;2022-09-03T15:41:28;24.00;99.90
7572;DHT22;3827;49.928;8.548;2022-09-03T15:43:59;23.80;99.90
7572;DHT22;3827;49.928;8.548;2022-09-03T15:46:45;23.70;99.90
7572;DHT22;3827;49.928;8.548;2022-09-03T15:49:22;23.60;99.90
7572;DHT22;3827;49.928;8.548;2022-09-03T15:51:59;23.50;99.90
7572;DHT22;3827;49.928;8.548;2022-09-03T15:54:37;23.40;99.90
7572;DHT22;3827;49.928;8.548;2022-09-03T15:57:11;23.40;99.90
7572;DHT22;3827;49.928;8.548;2022-09-03T15:59:41;23.30;99.90
7572;DHT22;3827;49.928;8.548;2022-09-03T16:02:15;23.20;99.90
7572;DHT22;3827;49.928;8.548;2022-09-03T16:04:58;23.20;99.90
7572;DHT22;3827;49.928;8.548;2022-09-03T16:07:42;23.10;99.90
7572;DHT22;3827;49.928;8.548;2022-09-03T16:10:15;23.10;99.90
7572;DHT22;3827;49.928;8.548;2022-09-03T16:12:48;23.10;99.90
7572;DHT22;3827;49.928;8.548;2022-09-03T16:15:20;23.10;99.90
7572;DHT22;3827;49.928;8.548;2022-09-03T16:17:53;23.00;99.90
7572;DHT22;3827;49.928;8.548;2022-09-03T16:20:24;23.30;99.90
7572;DHT22;3827;49.928;8.548;2022-09-03T16:22:58;23.00;99.90
7572;DHT22;3827;49.928;8.548;2022-09-03T16:25:31;23.10;99.90
7572;DHT22;3827;49.928;8.548;2022-09-03T16:28:04;22.90;99.90
7572;DHT22;3827;49.928;8.548;2022-09-03T16:30:47;23.00;99.90
7572;DHT22;3827;49.928;8.548;2022-09-03T16:33:22;22.90;99.90
7572;DHT22;3827;49.928;8.548;2022-09-03T16:35:56;22.80;99.90
7572;DHT22;3827;49.928;8.548;2022-09-03T16:38:36;22.70;99.90
7572;DHT22;3827;49.928;8.548;2022-09-03T16:41:15;22.70;99.90
7572;DHT22;3827;49.928;8.548;2022-09-03T16:43:53;22.60;99.90